sensor_id;sensor_type;location;lat;lon;timestamp;P1;durP1;ratioP1;P2;durP2;ratioP2
9115;SDS011;4593;53.652;10.168;2023-06-10T00:00:12;5.83;;;3.40;;
9115;SDS011;4593;53.652;10.168;2023-06-10T00:02:40;5.93;;;3.80;;
9115;SDS011;4593;53.652;10.168;2023-06-10T00:05:06;4.73;;;3.50;;
9115;SDS011;4593;53.652;10.168;2023-06-10T00:07:33;9.10;;;3.60;;
9115;SDS011;4593;53.652;10.168;2023-06-10T00:10:03;4.90;;;3.53;;
9115;SDS011;4593;53.652;10.168;2023-06-10T00:12:32;6.57;;;3.57;;
9115;SDS011;4593;53.652;10.168;2023-06-10T00:15:03;4.53;;;3.40;;
9115;SDS011;4593;53.652;10.168;2023-06-10T00:17:30;4.37;;;3.50;;
9115;SDS011;4593;53.652;10.168;2023-06-10T00:19:56;3.97;;;2.70;;
9115;SDS011;4593;53.652;10.168;2023-06-10T00:22:22;5.53;;;3.20;;
9115;SDS011;4593;53.652;10.168;2023-06-10T00:24:49;8.47;;;3.17;;
9115;SDS011;4593;53.652;10.168;2023-06-10T00:27:16;5.20;;;3.50;;
9115;SDS011;4593;53.652;10.168;2023-06-10T00:29:41;11.47;;;3.50;;
9115;SDS011;4593;53.652;10.168;2023-06-10T00:32:07;5.97;;;3.77;;
9115;SDS011;4593;53.652;10.168;2023-06-10T00:34:33;5.03;;;3.47;;
9115;SDS011;4593;53.652;10.168;2023-06-10T00:36:59;8.40;;;3.77;;
9115;SDS011;4593;53.652;10.168;2023-06-10T00:39:24;6.33;;;3.30;;
9115;SDS011;4593;53.652;10.168;2023-06-10T00:41:50;5.13;;;3.30;;
9115;SDS011;4593;53.652;10.168;2023-06-10T00:44:16;6.17;;;2.93;;
9115;SDS011;4593;53.652;10.168;2023-06-10T00:46:42;11.47;;;3.10;;
9115;SDS011;4593;53.652;10.168;2023-06-10T00:49:08;5.80;;;3.70;;
9115;SDS011;4593;53.652;10.168;2023-06-10T00:51:34;7.13;;;3.57;;
9115;SDS011;4593;53.652;10.168;2023-06-10T00:54:01;5.27;;;2.80;;
9115;SDS011;4593;53.652;10.168;2023-06-10T00:56:28;7.80;;;3.10;;
9115;SDS011;4593;53.652;10.168;2023-06-10T00:58:53;8.40;;;3.13;;
9115;SDS011;4593;53.652;10.168;2023-06-10T01:01:19;5.40;;;3.57;;
9115;SDS011;4593;53.652;10.168;2023-06-10T01:03:45;7.70;;;3.47;;
9115;SDS011;4593;53.652;10.168;2023-06-10T01:09:18;5.20;;;3.20;;
9115;SDS011;4593;53.652;10.168;2023-06-10T01:11:56;15.00;;;3.97;;
9115;SDS011;4593;53.652;10.168;2023-06-10T01:14:28;5.13;;;3.00;;
9115;SDS011;4593;53.652;10.168;2023-06-10T01:16:56;4.77;;;3.20;;
9115;SDS011;4593;53.652;10.168;2023-06-10T01:19:23;5.03;;;3.03;;
9115;SDS011;4593;53.652;10.168;2023-06-10T01:21:49;7.57;;;2.83;;
9115;SDS011;4593;53.652;10.168;2023-06-10T01:24:16;6.43;;;2.80;;
9115;SDS011;4593;53.652;10.168;2023-06-10T01:26:43;8.10;;;3.43;;
9115;SDS011;4593;53.652;10.168;2023-06-10T01:29:19;6.80;;;3.10;;
9115;SDS011;4593;53.652;10.168;2023-06-10T01:31:59;6.53;;;3.13;;
9115;SDS011;4593;53.652;10.168;2023-06-10T01:34:31;6.50;;;2.70;;
9115;SDS011;4593;53.652;10.168;2023-06-10T01:36:58;4.13;;;2.47;;
9115;SDS011;4593;53.652;10.168;2023-06-10T01:39:24;5.20;;;2.77;;
9115;SDS011;4593;53.652;10.168;2023-06-10T01:41:52;5.60;;;3.10;;
9115;SDS011;4593;53.652;10.168;2023-06-10T01:44:20;4.73;;;2.53;;
9115;SDS011;4593;53.652;10.168;2023-06-10T01:46:47;5.17;;;2.87;;
9115;SDS011;4593;53.652;10.168;2023-06-10T01:49:13;5.37;;;2.60;;
9115;SDS011;4593;53.652;10.168;2023-06-10T01:51:38;5.20;;;2.77;;
9115;SDS011;4593;53.652;10.168;2023-06-10T01:54:04;3.10;;;2.70;;
9115;SDS011;4593;53.652;10.168;2023-06-10T01:56:31;4.20;;;2.77;;
9115;SDS011;4593;53.652;10.168;2023-06-10T01:58:56;5.03;;;2.53;;
9115;SDS011;4593;53.652;10.168;2023-06-10T02:01:26;6.20;;;2.60;;
9115;SDS011;4593;53.652;10.168;2023-06-10T02:03:52;3.80;;;2.80;;
9115;SDS011;4593;53.652;10.168;2023-06-10T02:06:18;6.20;;;2.67;;
9115;SDS011;4593;53.652;10.168;2023-06-10T02:08:43;5.63;;;2.40;;
9115;SDS011;4593;53.652;10.168;2023-06-10T02:11:09;5.60;;;2.67;;
9115;SDS011;4593;53.652;10.168;2023-06-10T02:13:35;2.60;;;2.40;;
9115;SDS011;4593;53.652;10.168;2023-06-10T02:16:01;4.93;;;2.93;;
9115;SDS011;4593;53.652;10.168;2023-06-10T02:18:27;3.40;;;2.60;;
9115;SDS011;4593;53.652;10.168;2023-06-10T02:20:53;6.00;;;2.73;;
9115;SDS011;4593;53.652;10.168;2023-06-10T02:23:19;2.77;;;2.37;;
9115;SDS011;4593;53.652;10.168;2023-06-10T02:25:45;5.23;;;3.00;;
9115;SDS011;4593;53.652;10.168;2023-06-10T02:28:12;3.03;;;2.50;;
9115;SDS011;4593;53.652;10.168;2023-06-10T02:30:39;3.10;;;2.53;;
9115;SDS011;4593;53.652;10.168;2023-06-10T02:33:06;7.40;;;2.83;;
9115;SDS011;4593;53.652;10.168;2023-06-10T02:35:35;3.83;;;2.73;;
9115;SDS011;4593;53.652;10.168;2023-06-10T02:38:01;3.03;;;2.50;;
9115;SDS011;4593;53.652;10.168;2023-06-10T02:40:27;8.00;;;2.37;;
9115;SDS011;4593;53.652;10.168;2023-06-10T02:42:53;7.23;;;2.67;;
9115;SDS011;4593;53.652;10.168;2023-06-10T02:45:19;4.07;;;2.63;;
9115;SDS011;4593;53.652;10.168;2023-06-10T02:47:45;4.97;;;2.50;;
9115;SDS011;4593;53.652;10.168;2023-06-10T02:50:11;4.33;;;2.53;;
9115;SDS011;4593;53.652;10.168;2023-06-10T02:52:37;6.47;;;3.07;;
9115;SDS011;4593;53.652;10.168;2023-06-10T02:55:03;3.53;;;2.57;;
9115;SDS011;4593;53.652;10.168;2023-06-10T02:57:28;5.23;;;2.50;;
9115;SDS011;4593;53.652;10.168;2023-06-10T02:59:54;5.67;;;2.30;;
9115;SDS011;4593;53.652;10.168;2023-06-10T03:02:20;5.23;;;2.50;;
9115;SDS011;4593;53.652;10.168;2023-06-10T03:04:46;2.73;;;2.50;;
9115;SDS011;4593;53.652;10.168;2023-06-10T03:07:12;4.57;;;2.50;;
9115;SDS011;4593;53.652;10.168;2023-06-10T03:09:38;3.30;;;2.30;;
9115;SDS011;4593;53.652;10.168;2023-06-10T03:12:04;5.17;;;2.50;;
9115;SDS011;4593;53.652;10.168;2023-06-10T03:14:31;4.67;;;2.30;;
9115;SDS011;4593;53.652;10.168;2023-06-10T03:16:56;7.50;;;2.57;;
9115;SDS011;4593;53.652;10.168;2023-06-10T03:19:22;2.87;;;2.33;;
9115;SDS011;4593;53.652;10.168;2023-06-10T03:21:49;3.70;;;2.60;;
9115;SDS011;4593;53.652;10.168;2023-06-10T03:24:23;10.07;;;2.93;;
9115;SDS011;4593;53.652;10.168;2023-06-10T03:26:49;2.30;;;2.10;;
9115;SDS011;4593;53.652;10.168;2023-06-10T03:29:14;6.97;;;2.90;;
9115;SDS011;4593;53.652;10.168;2023-06-10T03:31:40;3.63;;;2.30;;
9115;SDS011;4593;53.652;10.168;2023-06-10T03:34:05;2.50;;;2.10;;
9115;SDS011;4593;53.652;10.168;2023-06-10T03:36:31;4.70;;;2.63;;
9115;SDS011;4593;53.652;10.168;2023-06-10T03:38:57;6.27;;;2.13;;
9115;SDS011;4593;53.652;10.168;2023-06-10T03:41:22;7.43;;;2.40;;
9115;SDS011;4593;53.652;10.168;2023-06-10T03:43:48;7.30;;;2.90;;
9115;SDS011;4593;53.652;10.168;2023-06-10T03:46:14;5.93;;;2.27;;
9115;SDS011;4593;53.652;10.168;2023-06-10T03:48:40;3.50;;;1.97;;
9115;SDS011;4593;53.652;10.168;2023-06-10T03:51:06;2.77;;;2.33;;
9115;SDS011;4593;53.652;10.168;2023-06-10T03:53:32;7.10;;;2.97;;
9115;SDS011;4593;53.652;10.168;2023-06-10T03:55:57;2.90;;;2.10;;
9115;SDS011;4593;53.652;10.168;2023-06-10T03:58:23;4.60;;;2.33;;
9115;SDS011;4593;53.652;10.168;2023-06-10T04:00:49;2.23;;;1.90;;
9115;SDS011;4593;53.652;10.168;2023-06-10T04:03:15;9.47;;;2.43;;
9115;SDS011;4593;53.652;10.168;2023-06-10T04:05:40;10.00;;;2.40;;
9115;SDS011;4593;53.652;10.168;2023-06-10T04:08:07;3.43;;;2.50;;
9115;SDS011;4593;53.652;10.168;2023-06-10T04:10:33;3.60;;;2.50;;
9115;SDS011;4593;53.652;10.168;2023-06-10T04:12:58;5.83;;;2.53;;
9115;SDS011;4593;53.652;10.168;2023-06-10T04:15:24;4.70;;;2.40;;
9115;SDS011;4593;53.652;10.168;2023-06-10T04:17:50;5.93;;;2.37;;
9115;SDS011;4593;53.652;10.168;2023-06-10T04:20:16;4.90;;;2.40;;
9115;SDS011;4593;53.652;10.168;2023-06-10T04:22:42;3.23;;;2.27;;
9115;SDS011;4593;53.652;10.168;2023-06-10T04:25:08;2.50;;;2.30;;
9115;SDS011;4593;53.652;10.168;2023-06-10T04:27:36;4.83;;;2.30;;
9115;SDS011;4593;53.652;10.168;2023-06-10T04:30:05;3.43;;;2.50;;
9115;SDS011;4593;53.652;10.168;2023-06-10T04:32:31;5.27;;;2.67;;
9115;SDS011;4593;53.652;10.168;2023-06-10T04:34:56;7.03;;;2.80;;
9115;SDS011;4593;53.652;10.168;2023-06-10T04:37:22;4.00;;;2.50;;
9115;SDS011;4593;53.652;10.168;2023-06-10T04:39:48;5.87;;;2.53;;
9115;SDS011;4593;53.652;10.168;2023-06-10T04:42:13;6.07;;;2.27;;
9115;SDS011;4593;53.652;10.168;2023-06-10T04:44:39;5.20;;;2.50;;
9115;SDS011;4593;53.652;10.168;2023-06-10T04:47:05;4.50;;;2.80;;
9115;SDS011;4593;53.652;10.168;2023-06-10T04:49:33;4.90;;;2.50;;
9115;SDS011;4593;53.652;10.168;2023-06-10T04:51:58;3.23;;;2.30;;
9115;SDS011;4593;53.652;10.168;2023-06-10T04:54:25;4.20;;;2.57;;
9115;SDS011;4593;53.652;10.168;2023-06-10T04:56:51;5.67;;;2.27;;
9115;SDS011;4593;53.652;10.168;2023-06-10T04:59:16;5.77;;;2.43;;
9115;SDS011;4593;53.652;10.168;2023-06-10T05:01:42;5.83;;;2.43;;
9115;SDS011;4593;53.652;10.168;2023-06-10T05:04:08;4.87;;;2.40;;
9115;SDS011;4593;53.652;10.168;2023-06-10T05:06:33;3.47;;;2.43;;
9115;SDS011;4593;53.652;10.168;2023-06-10T05:09:00;4.90;;;2.17;;
9115;SDS011;4593;53.652;10.168;2023-06-10T05:11:26;3.67;;;2.40;;
9115;SDS011;4593;53.652;10.168;2023-06-10T05:13:52;7.07;;;2.30;;
9115;SDS011;4593;53.652;10.168;2023-06-10T05:16:17;4.77;;;2.73;;
9115;SDS011;4593;53.652;10.168;2023-06-10T05:18:43;5.90;;;2.53;;
9115;SDS011;4593;53.652;10.168;2023-06-10T05:21:08;8.43;;;2.67;;
9115;SDS011;4593;53.652;10.168;2023-06-10T05:23:34;3.80;;;2.50;;
9115;SDS011;4593;53.652;10.168;2023-06-10T05:26:00;4.80;;;2.27;;
9115;SDS011;4593;53.652;10.168;2023-06-10T05:28:26;4.43;;;2.13;;
9115;SDS011;4593;53.652;10.168;2023-06-10T05:30:51;6.30;;;2.23;;
9115;SDS011;4593;53.652;10.168;2023-06-10T05:33:17;6.53;;;2.43;;
9115;SDS011;4593;53.652;10.168;2023-06-10T05:35:42;4.57;;;2.10;;
9115;SDS011;4593;53.652;10.168;2023-06-10T05:38:08;4.50;;;2.20;;
9115;SDS011;4593;53.652;10.168;2023-06-10T05:40:34;5.97;;;2.00;;
9115;SDS011;4593;53.652;10.168;2023-06-10T05:42:59;2.30;;;2.10;;
9115;SDS011;4593;53.652;10.168;2023-06-10T05:45:25;3.57;;;2.13;;
9115;SDS011;4593;53.652;10.168;2023-06-10T05:47:52;6.33;;;2.53;;
9115;SDS011;4593;53.652;10.168;2023-06-10T05:50:17;2.20;;;2.00;;
9115;SDS011;4593;53.652;10.168;2023-06-10T05:52:43;2.67;;;2.10;;
9115;SDS011;4593;53.652;10.168;2023-06-10T05:55:09;3.77;;;2.50;;
9115;SDS011;4593;53.652;10.168;2023-06-10T05:57:35;2.57;;;1.90;;
9115;SDS011;4593;53.652;10.168;2023-06-10T06:00:00;4.07;;;2.40;;
9115;SDS011;4593;53.652;10.168;2023-06-10T06:02:26;5.17;;;1.90;;
9115;SDS011;4593;53.652;10.168;2023-06-10T06:04:52;5.63;;;2.43;;
9115;SDS011;4593;53.652;10.168;2023-06-10T06:07:17;3.77;;;2.13;;
9115;SDS011;4593;53.652;10.168;2023-06-10T06:09:45;3.73;;;2.00;;
9115;SDS011;4593;53.652;10.168;2023-06-10T06:12:11;6.43;;;2.23;;
9115;SDS011;4593;53.652;10.168;2023-06-10T06:14:37;3.17;;;2.30;;
9115;SDS011;4593;53.652;10.168;2023-06-10T06:17:06;3.47;;;2.17;;
9115;SDS011;4593;53.652;10.168;2023-06-10T06:19:32;5.77;;;1.90;;
9115;SDS011;4593;53.652;10.168;2023-06-10T06:21:58;4.43;;;2.00;;
9115;SDS011;4593;53.652;10.168;2023-06-10T06:24:23;4.93;;;2.07;;
9115;SDS011;4593;53.652;10.168;2023-06-10T06:26:49;8.67;;;2.63;;
9115;SDS011;4593;53.652;10.168;2023-06-10T06:29:15;7.70;;;2.10;;
9115;SDS011;4593;53.652;10.168;2023-06-10T06:31:40;4.23;;;2.30;;
9115;SDS011;4593;53.652;10.168;2023-06-10T06:34:06;9.57;;;2.67;;
9115;SDS011;4593;53.652;10.168;2023-06-10T06:36:32;4.27;;;2.20;;
9115;SDS011;4593;53.652;10.168;2023-06-10T06:38:58;3.23;;;2.10;;
9115;SDS011;4593;53.652;10.168;2023-06-10T06:41:24;6.43;;;2.40;;
9115;SDS011;4593;53.652;10.168;2023-06-10T06:43:51;4.27;;;2.67;;
9115;SDS011;4593;53.652;10.168;2023-06-10T06:46:17;6.70;;;2.13;;
9115;SDS011;4593;53.652;10.168;2023-06-10T06:48:42;8.87;;;2.50;;
9115;SDS011;4593;53.652;10.168;2023-06-10T06:51:08;7.40;;;1.97;;
9115;SDS011;4593;53.652;10.168;2023-06-10T06:53:34;3.10;;;2.40;;
9115;SDS011;4593;53.652;10.168;2023-06-10T06:56:00;2.50;;;2.10;;
9115;SDS011;4593;53.652;10.168;2023-06-10T06:58:27;5.53;;;2.10;;
9115;SDS011;4593;53.652;10.168;2023-06-10T07:00:52;2.77;;;2.10;;
9115;SDS011;4593;53.652;10.168;2023-06-10T07:03:18;7.90;;;2.83;;
9115;SDS011;4593;53.652;10.168;2023-06-10T07:05:44;5.43;;;2.33;;
9115;SDS011;4593;53.652;10.168;2023-06-10T07:08:09;5.23;;;2.40;;
9115;SDS011;4593;53.652;10.168;2023-06-10T07:10:37;10.37;;;2.27;;
9115;SDS011;4593;53.652;10.168;2023-06-10T07:13:02;4.37;;;2.30;;
9115;SDS011;4593;53.652;10.168;2023-06-10T07:15:28;4.30;;;2.30;;
9115;SDS011;4593;53.652;10.168;2023-06-10T07:17:54;6.77;;;2.57;;
9115;SDS011;4593;53.652;10.168;2023-06-10T07:20:20;9.03;;;3.03;;
9115;SDS011;4593;53.652;10.168;2023-06-10T07:22:46;5.27;;;1.93;;
9115;SDS011;4593;53.652;10.168;2023-06-10T07:25:11;5.07;;;2.20;;
9115;SDS011;4593;53.652;10.168;2023-06-10T07:27:37;6.10;;;2.63;;
9115;SDS011;4593;53.652;10.168;2023-06-10T07:30:03;5.27;;;2.70;;
9115;SDS011;4593;53.652;10.168;2023-06-10T07:32:31;5.53;;;2.37;;
9115;SDS011;4593;53.652;10.168;2023-06-10T07:34:57;2.57;;;2.03;;
9115;SDS011;4593;53.652;10.168;2023-06-10T07:37:23;2.53;;;2.23;;
9115;SDS011;4593;53.652;10.168;2023-06-10T07:39:48;5.37;;;2.00;;
9115;SDS011;4593;53.652;10.168;2023-06-10T07:42:14;5.40;;;2.33;;
9115;SDS011;4593;53.652;10.168;2023-06-10T07:44:40;4.87;;;2.00;;
9115;SDS011;4593;53.652;10.168;2023-06-10T07:47:05;6.17;;;2.60;;
9115;SDS011;4593;53.652;10.168;2023-06-10T07:49:31;4.80;;;2.27;;
9115;SDS011;4593;53.652;10.168;2023-06-10T07:51:57;3.60;;;2.13;;
9115;SDS011;4593;53.652;10.168;2023-06-10T07:54:22;4.53;;;2.40;;
9115;SDS011;4593;53.652;10.168;2023-06-10T07:56:48;3.43;;;2.27;;
9115;SDS011;4593;53.652;10.168;2023-06-10T07:59:13;5.60;;;2.50;;
9115;SDS011;4593;53.652;10.168;2023-06-10T08:01:39;4.37;;;2.73;;
9115;SDS011;4593;53.652;10.168;2023-06-10T08:04:05;4.73;;;2.43;;
9115;SDS011;4593;53.652;10.168;2023-06-10T08:06:31;5.80;;;2.50;;
9115;SDS011;4593;53.652;10.168;2023-06-10T08:08:57;6.20;;;2.13;;
9115;SDS011;4593;53.652;10.168;2023-06-10T08:11:23;3.57;;;2.50;;
9115;SDS011;4593;53.652;10.168;2023-06-10T08:13:48;7.87;;;2.50;;
9115;SDS011;4593;53.652;10.168;2023-06-10T08:16:14;5.07;;;2.40;;
9115;SDS011;4593;53.652;10.168;2023-06-10T08:18:40;9.63;;;2.60;;
9115;SDS011;4593;53.652;10.168;2023-06-10T08:21:06;9.13;;;2.47;;
9115;SDS011;4593;53.652;10.168;2023-06-10T08:23:31;3.80;;;2.47;;
9115;SDS011;4593;53.652;10.168;2023-06-10T08:25:57;4.87;;;2.50;;
9115;SDS011;4593;53.652;10.168;2023-06-10T08:28:23;6.50;;;2.63;;
9115;SDS011;4593;53.652;10.168;2023-06-10T08:30:48;5.40;;;2.77;;
9115;SDS011;4593;53.652;10.168;2023-06-10T08:33:14;5.13;;;2.47;;
9115;SDS011;4593;53.652;10.168;2023-06-10T08:35:40;3.93;;;2.30;;
9115;SDS011;4593;53.652;10.168;2023-06-10T08:38:06;5.63;;;2.70;;
9115;SDS011;4593;53.652;10.168;2023-06-10T08:40:32;5.87;;;2.67;;
9115;SDS011;4593;53.652;10.168;2023-06-10T08:43:08;5.23;;;2.40;;
9115;SDS011;4593;53.652;10.168;2023-06-10T08:45:42;3.80;;;2.30;;
9115;SDS011;4593;53.652;10.168;2023-06-10T08:48:10;7.07;;;2.23;;
9115;SDS011;4593;53.652;10.168;2023-06-10T08:50:37;9.10;;;2.77;;
9115;SDS011;4593;53.652;10.168;2023-06-10T08:53:06;3.40;;;2.50;;
9115;SDS011;4593;53.652;10.168;2023-06-10T08:55:33;5.30;;;2.70;;
9115;SDS011;4593;53.652;10.168;2023-06-10T08:58:02;7.40;;;2.60;;
9115;SDS011;4593;53.652;10.168;2023-06-10T09:00:28;4.80;;;2.57;;
9115;SDS011;4593;53.652;10.168;2023-06-10T09:02:56;3.97;;;2.30;;
9115;SDS011;4593;53.652;10.168;2023-06-10T09:05:23;6.93;;;2.47;;
9115;SDS011;4593;53.652;10.168;2023-06-10T09:07:49;2.30;;;2.10;;
9115;SDS011;4593;53.652;10.168;2023-06-10T09:10:17;8.30;;;3.10;;
9115;SDS011;4593;53.652;10.168;2023-06-10T09:12:43;8.17;;;2.90;;
9115;SDS011;4593;53.652;10.168;2023-06-10T09:15:09;3.53;;;2.13;;
9115;SDS011;4593;53.652;10.168;2023-06-10T09:17:36;5.10;;;2.53;;
9115;SDS011;4593;53.652;10.168;2023-06-10T09:20:03;5.13;;;2.87;;
9115;SDS011;4593;53.652;10.168;2023-06-10T09:22:29;4.40;;;2.30;;
9115;SDS011;4593;53.652;10.168;2023-06-10T09:25:02;5.03;;;2.50;;
9115;SDS011;4593;53.652;10.168;2023-06-10T09:27:30;12.53;;;2.80;;
9115;SDS011;4593;53.652;10.168;2023-06-10T09:29:59;6.90;;;2.60;;
9115;SDS011;4593;53.652;10.168;2023-06-10T09:32:24;4.13;;;2.90;;
9115;SDS011;4593;53.652;10.168;2023-06-10T09:34:51;6.37;;;2.60;;
9115;SDS011;4593;53.652;10.168;2023-06-10T09:37:20;4.50;;;2.43;;
9115;SDS011;4593;53.652;10.168;2023-06-10T09:40:03;7.10;;;3.07;;
9115;SDS011;4593;53.652;10.168;2023-06-10T09:42:34;7.40;;;2.70;;
9115;SDS011;4593;53.652;10.168;2023-06-10T09:45:04;3.77;;;2.80;;
9115;SDS011;4593;53.652;10.168;2023-06-10T09:47:31;6.97;;;2.97;;
9115;SDS011;4593;53.652;10.168;2023-06-10T09:49:56;5.07;;;2.90;;
9115;SDS011;4593;53.652;10.168;2023-06-10T09:52:22;9.77;;;3.10;;
9115;SDS011;4593;53.652;10.168;2023-06-10T09:54:52;4.57;;;2.73;;
9115;SDS011;4593;53.652;10.168;2023-06-10T09:57:18;5.70;;;3.10;;
9115;SDS011;4593;53.652;10.168;2023-06-10T09:59:46;4.57;;;2.97;;
9115;SDS011;4593;53.652;10.168;2023-06-10T10:02:15;5.83;;;2.73;;
9115;SDS011;4593;53.652;10.168;2023-06-10T10:04:42;10.17;;;2.70;;
9115;SDS011;4593;53.652;10.168;2023-06-10T10:07:09;6.07;;;2.80;;
9115;SDS011;4593;53.652;10.168;2023-06-10T10:09:38;12.60;;;3.20;;
9115;SDS011;4593;53.652;10.168;2023-06-10T10:12:15;7.63;;;2.83;;
9115;SDS011;4593;53.652;10.168;2023-06-10T10:14:45;4.70;;;2.90;;
9115;SDS011;4593;53.652;10.168;2023-06-10T10:17:12;7.23;;;2.97;;
9115;SDS011;4593;53.652;10.168;2023-06-10T10:19:46;6.57;;;2.67;;
9115;SDS011;4593;53.652;10.168;2023-06-10T10:22:18;9.37;;;3.30;;
9115;SDS011;4593;53.652;10.168;2023-06-10T10:24:57;5.97;;;3.00;;
9115;SDS011;4593;53.652;10.168;2023-06-10T10:27:27;8.33;;;2.80;;
9115;SDS011;4593;53.652;10.168;2023-06-10T10:29:55;3.07;;;2.67;;
9115;SDS011;4593;53.652;10.168;2023-06-10T10:32:26;3.73;;;2.47;;
9115;SDS011;4593;53.652;10.168;2023-06-10T10:35:16;8.67;;;2.80;;
9115;SDS011;4593;53.652;10.168;2023-06-10T10:37:44;7.07;;;3.07;;
9115;SDS011;4593;53.652;10.168;2023-06-10T10:40:10;4.60;;;3.03;;
9115;SDS011;4593;53.652;10.168;2023-06-10T10:42:37;4.00;;;2.73;;
9115;SDS011;4593;53.652;10.168;2023-06-10T10:45:04;3.90;;;2.87;;
9115;SDS011;4593;53.652;10.168;2023-06-10T10:47:31;6.67;;;3.03;;
9115;SDS011;4593;53.652;10.168;2023-06-10T10:50:00;6.07;;;2.70;;
9115;SDS011;4593;53.652;10.168;2023-06-10T10:52:43;6.20;;;2.80;;
9115;SDS011;4593;53.652;10.168;2023-06-10T10:55:18;5.93;;;2.87;;
9115;SDS011;4593;53.652;10.168;2023-06-10T10:57:44;7.30;;;2.83;;
9115;SDS011;4593;53.652;10.168;2023-06-10T11:00:52;7.23;;;3.00;;
9115;SDS011;4593;53.652;10.168;2023-06-10T11:03:14;5.77;;;3.03;;
9115;SDS011;4593;53.652;10.168;2023-06-10T11:05:45;6.23;;;3.27;;
9115;SDS011;4593;53.652;10.168;2023-06-10T11:08:15;6.53;;;3.40;;
9115;SDS011;4593;53.652;10.168;2023-06-10T11:13:57;8.20;;;3.20;;
9115;SDS011;4593;53.652;10.168;2023-06-10T11:16:27;6.10;;;3.03;;
9115;SDS011;4593;53.652;10.168;2023-06-10T11:18:53;6.97;;;3.30;;
9115;SDS011;4593;53.652;10.168;2023-06-10T11:21:20;6.30;;;3.17;;
9115;SDS011;4593;53.652;10.168;2023-06-10T11:23:45;5.97;;;2.80;;
9115;SDS011;4593;53.652;10.168;2023-06-10T11:26:12;5.37;;;3.13;;
9115;SDS011;4593;53.652;10.168;2023-06-10T11:33:56;11.47;;;3.27;;
9115;SDS011;4593;53.652;10.168;2023-06-10T11:36:23;4.07;;;3.00;;
9115;SDS011;4593;53.652;10.168;2023-06-10T11:38:50;9.40;;;3.00;;
9115;SDS011;4593;53.652;10.168;2023-06-10T11:41:23;6.03;;;2.77;;
9115;SDS011;4593;53.652;10.168;2023-06-10T11:43:51;5.80;;;3.00;;
9115;SDS011;4593;53.652;10.168;2023-06-10T11:46:18;3.03;;;2.67;;
9115;SDS011;4593;53.652;10.168;2023-06-10T11:48:51;7.77;;;3.17;;
9115;SDS011;4593;53.652;10.168;2023-06-10T11:51:17;6.37;;;3.30;;
9115;SDS011;4593;53.652;10.168;2023-06-10T11:53:46;4.37;;;2.73;;
9115;SDS011;4593;53.652;10.168;2023-06-10T11:56:13;3.70;;;2.50;;
9115;SDS011;4593;53.652;10.168;2023-06-10T11:58:40;5.43;;;2.93;;
9115;SDS011;4593;53.652;10.168;2023-06-10T12:01:10;3.87;;;3.13;;
9115;SDS011;4593;53.652;10.168;2023-06-10T12:03:36;4.60;;;2.83;;
9115;SDS011;4593;53.652;10.168;2023-06-10T12:06:04;8.73;;;3.03;;
9115;SDS011;4593;53.652;10.168;2023-06-10T12:08:31;8.53;;;3.37;;
9115;SDS011;4593;53.652;10.168;2023-06-10T12:10:57;6.47;;;2.97;;
9115;SDS011;4593;53.652;10.168;2023-06-10T12:13:25;3.53;;;3.00;;
9115;SDS011;4593;53.652;10.168;2023-06-10T12:15:51;6.43;;;3.13;;
9115;SDS011;4593;53.652;10.168;2023-06-10T12:20:50;5.13;;;3.30;;
9115;SDS011;4593;53.652;10.168;2023-06-10T12:23:17;7.97;;;2.70;;
9115;SDS011;4593;53.652;10.168;2023-06-10T12:25:49;4.87;;;3.10;;
9115;SDS011;4593;53.652;10.168;2023-06-10T12:28:22;5.67;;;2.90;;
9115;SDS011;4593;53.652;10.168;2023-06-10T12:30:48;3.10;;;2.77;;
9115;SDS011;4593;53.652;10.168;2023-06-10T12:33:20;8.10;;;3.50;;
9115;SDS011;4593;53.652;10.168;2023-06-10T12:35:47;11.03;;;3.67;;
9115;SDS011;4593;53.652;10.168;2023-06-10T12:38:24;4.43;;;3.20;;
9115;SDS011;4593;53.652;10.168;2023-06-10T12:40:54;6.70;;;3.60;;
9115;SDS011;4593;53.652;10.168;2023-06-10T12:43:25;7.87;;;2.90;;
9115;SDS011;4593;53.652;10.168;2023-06-10T12:45:51;16.87;;;3.00;;
9115;SDS011;4593;53.652;10.168;2023-06-10T12:50:51;5.37;;;2.97;;
9115;SDS011;4593;53.652;10.168;2023-06-10T12:53:18;6.37;;;2.97;;
9115;SDS011;4593;53.652;10.168;2023-06-10T12:55:45;5.10;;;2.90;;
9115;SDS011;4593;53.652;10.168;2023-06-10T12:58:11;8.17;;;3.07;;
9115;SDS011;4593;53.652;10.168;2023-06-10T13:00:37;4.57;;;2.50;;
9115;SDS011;4593;53.652;10.168;2023-06-10T13:03:03;6.67;;;3.30;;
9115;SDS011;4593;53.652;10.168;2023-06-10T13:05:30;3.60;;;2.80;;
9115;SDS011;4593;53.652;10.168;2023-06-10T13:07:56;5.10;;;3.30;;
9115;SDS011;4593;53.652;10.168;2023-06-10T13:10:23;6.93;;;2.93;;
9115;SDS011;4593;53.652;10.168;2023-06-10T13:12:49;5.60;;;2.80;;
9115;SDS011;4593;53.652;10.168;2023-06-10T13:15:15;5.40;;;3.00;;
9115;SDS011;4593;53.652;10.168;2023-06-10T13:17:44;6.97;;;3.00;;
9115;SDS011;4593;53.652;10.168;2023-06-10T13:20:14;5.57;;;2.70;;
9115;SDS011;4593;53.652;10.168;2023-06-10T13:22:41;8.03;;;2.60;;
9115;SDS011;4593;53.652;10.168;2023-06-10T13:25:07;5.10;;;2.60;;
9115;SDS011;4593;53.652;10.168;2023-06-10T13:27:34;3.23;;;2.47;;
9115;SDS011;4593;53.652;10.168;2023-06-10T13:30:03;6.07;;;2.90;;
9115;SDS011;4593;53.652;10.168;2023-06-10T13:32:29;6.53;;;3.03;;
9115;SDS011;4593;53.652;10.168;2023-06-10T13:34:54;4.70;;;2.50;;
9115;SDS011;4593;53.652;10.168;2023-06-10T13:37:21;6.67;;;2.50;;
9115;SDS011;4593;53.652;10.168;2023-06-10T13:39:47;4.73;;;2.50;;
9115;SDS011;4593;53.652;10.168;2023-06-10T13:42:15;6.00;;;2.60;;
9115;SDS011;4593;53.652;10.168;2023-06-10T13:44:44;6.93;;;2.73;;
9115;SDS011;4593;53.652;10.168;2023-06-10T13:47:10;4.70;;;2.40;;
9115;SDS011;4593;53.652;10.168;2023-06-10T13:49:36;8.30;;;3.13;;
9115;SDS011;4593;53.652;10.168;2023-06-10T13:52:02;5.73;;;2.60;;
9115;SDS011;4593;53.652;10.168;2023-06-10T13:54:28;8.03;;;2.93;;
9115;SDS011;4593;53.652;10.168;2023-06-10T13:56:54;7.63;;;2.57;;
9115;SDS011;4593;53.652;10.168;2023-06-10T13:59:19;4.20;;;2.70;;
9115;SDS011;4593;53.652;10.168;2023-06-10T14:01:46;4.73;;;2.47;;
9115;SDS011;4593;53.652;10.168;2023-06-10T14:04:11;5.30;;;2.73;;
9115;SDS011;4593;53.652;10.168;2023-06-10T14:06:37;5.50;;;2.53;;
9115;SDS011;4593;53.652;10.168;2023-06-10T14:09:03;11.80;;;3.07;;
9115;SDS011;4593;53.652;10.168;2023-06-10T14:11:29;10.80;;;2.93;;
9115;SDS011;4593;53.652;10.168;2023-06-10T14:13:55;7.60;;;3.13;;
9115;SDS011;4593;53.652;10.168;2023-06-10T14:16:24;6.00;;;2.77;;
9115;SDS011;4593;53.652;10.168;2023-06-10T14:18:49;8.13;;;3.03;;
9115;SDS011;4593;53.652;10.168;2023-06-10T14:21:18;6.23;;;2.70;;
9115;SDS011;4593;53.652;10.168;2023-06-10T14:23:44;5.50;;;3.10;;
9115;SDS011;4593;53.652;10.168;2023-06-10T14:26:10;7.33;;;2.50;;
9115;SDS011;4593;53.652;10.168;2023-06-10T14:28:36;8.33;;;2.60;;
9115;SDS011;4593;53.652;10.168;2023-06-10T14:31:02;12.10;;;2.83;;
9115;SDS011;4593;53.652;10.168;2023-06-10T14:33:27;4.27;;;2.60;;
9115;SDS011;4593;53.652;10.168;2023-06-10T14:35:53;4.37;;;2.77;;
9115;SDS011;4593;53.652;10.168;2023-06-10T14:38:19;10.63;;;2.80;;
9115;SDS011;4593;53.652;10.168;2023-06-10T14:40:45;9.40;;;2.90;;
9115;SDS011;4593;53.652;10.168;2023-06-10T14:43:10;3.73;;;2.57;;
9115;SDS011;4593;53.652;10.168;2023-06-10T14:45:36;6.37;;;3.27;;
9115;SDS011;4593;53.652;10.168;2023-06-10T14:48:03;5.03;;;2.90;;
9115;SDS011;4593;53.652;10.168;2023-06-10T14:50:29;9.07;;;3.00;;
9115;SDS011;4593;53.652;10.168;2023-06-10T14:52:55;3.53;;;2.87;;
9115;SDS011;4593;53.652;10.168;2023-06-10T14:55:21;5.80;;;2.80;;
9115;SDS011;4593;53.652;10.168;2023-06-10T14:57:48;4.83;;;3.00;;
9115;SDS011;4593;53.652;10.168;2023-06-10T15:00:13;6.67;;;3.13;;
9115;SDS011;4593;53.652;10.168;2023-06-10T15:02:41;4.27;;;2.30;;
9115;SDS011;4593;53.652;10.168;2023-06-10T15:05:07;7.73;;;2.73;;
9115;SDS011;4593;53.652;10.168;2023-06-10T15:07:33;6.83;;;2.80;;
9115;SDS011;4593;53.652;10.168;2023-06-10T15:09:59;5.47;;;2.70;;
9115;SDS011;4593;53.652;10.168;2023-06-10T15:12:26;9.07;;;3.40;;
9115;SDS011;4593;53.652;10.168;2023-06-10T15:14:52;3.97;;;2.60;;